Time,TemperatureF,DewpointF,PressureIn,WindDirection,WindDirectionDegrees,WindSpeedMPH,WindSpeedGustMPH,Humidity,HourlyPrecipIn,Conditions,Clouds,dailyrainin,SoftwareType,DateUTC
2013-01-17 00:04:00,42.0,41.0,29.94,West,270,0.0,0.0,97,0.00,,,0.35,,2013-01-17 05:04:00,
2013-01-17 00:12:00,42.0,41.0,29.94,West,270,0.0,0.0,97,0.00,,,0.35,,2013-01-17 05:12:00,
2013-01-17 00:22:00,42.0,41.0,29.93,West,270,0.0,0.0,97,0.00,,,0.35,,2013-01-17 05:22:00,
2013-01-17 00:33:00,42.0,41.0,29.93,West,270,0.0,0.0,97,0.00,,,0.26,,2013-01-17 05:33:00,
2013-01-17 00:42:00,42.0,41.0,29.93,West,270,0.0,0.0,97,0.00,,,0.26,,2013-01-17 05:42:00,
2013-01-17 00:53:00,42.0,41.0,29.95,West,270,0.0,0.0,97,0.00,,,0.26,,2013-01-17 05:53:00,
2013-01-17 01:02:00,42.0,41.0,29.95,West,270,0.0,0.0,97,0.00,,,0.26,,2013-01-17 06:02:00,
2013-01-17 01:12:00,42.0,41.0,29.96,West,270,0.0,0.0,97,0.00,,,0.26,,2013-01-17 06:12:00,
2013-01-17 01:22:00,42.0,41.0,29.96,West,270,0.0,0.0,97,0.00,,,0.26,,2013-01-17 06:22:00,
2013-01-17 01:32:00,42.0,41.0,29.95,West,270,0.0,0.0,97,0.00,,,0.16,,2013-01-17 06:32:00,
2013-01-17 01:42:00,42.0,41.0,29.95,West,270,0.0,0.0,97,0.00,,,0.16,,2013-01-17 06:42:00,
2013-01-17 01:53:00,42.0,41.0,29.96,West,270,0.0,0.0,97,0.00,,,0.16,,2013-01-17 06:53:00,
2013-01-17 02:02:00,42.0,41.0,29.97,West,270,0.0,0.0,97,0.00,,,0.16,,2013-01-17 07:02:00,
2013-01-17 02:12:00,42.0,41.0,29.97,West,270,0.0,0.0,97,0.00,,,0.16,,2013-01-17 07:12:00,
2013-01-17 02:22:00,42.0,41.0,29.96,West,270,0.0,0.0,97,0.00,,,0.16,,2013-01-17 07:22:00,
2013-01-17 02:33:00,42.0,41.0,29.97,West,270,0.0,0.0,97,0.00,,,0.08,,2013-01-17 07:33:00,
2013-01-17 02:42:00,42.0,41.0,29.97,West,270,0.0,0.0,97,0.00,,,0.08,,2013-01-17 07:42:00,
2013-01-17 02:52:00,42.0,41.0,29.97,West,270,0.0,0.0,97,0.00,,,0.08,,2013-01-17 07:52:00,
2013-01-17 03:02:00,42.0,41.0,29.98,ESE,112,0.0,0.0,97,0.00,,,0.08,,2013-01-17 08:02:00,
2013-01-17 03:12:00,42.0,41.0,29.98,ESE,112,0.0,0.0,97,0.00,,,0.08,,2013-01-17 08:12:00,
2013-01-17 03:22:00,42.0,41.0,29.96,ESE,112,0.0,0.0,97,0.00,,,0.06,,2013-01-17 08:22:00,
2013-01-17 03:32:00,42.0,41.0,29.97,ESE,112,0.0,0.0,97,0.00,,,0.06,,2013-01-17 08:32:00,
2013-01-17 03:43:00,42.0,41.0,29.97,ESE,112,0.0,0.0,97,0.00,,,0.06,,2013-01-17 08:43:00,
2013-01-17 03:53:00,42.0,41.0,29.96,ESE,112,0.0,0.0,97,0.00,,,0.06,,2013-01-17 08:53:00,
2013-01-17 04:02:00,42.0,41.0,29.95,ESE,112,0.0,0.0,97,0.00,,,0.06,,2013-01-17 09:02:00,
2013-01-17 04:12:00,42.0,41.0,29.95,ESE,112,0.0,0.0,97,0.00,,,0.06,,2013-01-17 09:12:00,
2013-01-17 04:22:00,42.0,41.0,29.97,ESE,112,0.0,0.0,97,0.00,,,0.06,,2013-01-17 09:22:00,
2013-01-17 04:32:00,42.0,41.0,29.96,ESE,112,0.0,0.0,97,0.00,,,0.06,,2013-01-17 09:32:00,
2013-01-17 04:42:00,42.0,41.0,29.96,ESE,112,0.0,0.0,97,0.00,,,0.06,,2013-01-17 09:42:00,
2013-01-17 04:53:00,42.0,41.0,29.96,ESE,112,0.0,0.0,97,0.00,,,0.06,,2013-01-17 09:53:00,
2013-01-17 05:02:00,42.0,41.0,29.96,ESE,112,0.0,0.0,97,0.00,,,0.06,,2013-01-17 10:02:00,
2013-01-17 05:12:00,42.0,41.0,29.96,ESE,112,0.0,0.0,97,0.00,,,0.06,,2013-01-17 10:12:00,
2013-01-17 05:22:00,42.0,41.0,29.97,West,270,0.0,2.0,97,0.00,,,0.06,,2013-01-17 10:22:00,
2013-01-17 05:32:00,42.0,41.0,29.98,West,270,0.0,0.0,97,0.00,,,0.06,,2013-01-17 10:32:00,
2013-01-17 05:42:00,42.0,41.0,29.98,West,270,0.0,0.0,97,0.00,,,0.06,,2013-01-17 10:42:00,
2013-01-17 05:53:00,42.0,41.0,29.99,West,270,0.0,0.0,97,0.00,,,0.06,,2013-01-17 10:53:00,
2013-01-17 06:03:00,42.0,41.0,29.98,WNW,292,0.0,0.0,97,0.00,,,0.06,,2013-01-17 11:03:00,
2013-01-17 06:12:00,42.0,41.0,29.98,WNW,292,0.0,0.0,97,0.00,,,0.06,,2013-01-17 11:12:00,
2013-01-17 06:22:00,42.0,41.0,29.98,WNW,292,0.0,0.0,97,0.00,,,0.04,,2013-01-17 11:22:00,
2013-01-17 06:33:00,42.0,41.0,29.98,WNW,292,0.0,0.0,97,0.00,,,0.04,,2013-01-17 11:33:00,
2013-01-17 06:43:00,42.0,41.0,29.98,WNW,292,0.0,0.0,97,0.00,,,0.04,,2013-01-17 11:43:00,
2013-01-17 06:53:00,42.0,41.0,30.00,WNW,292,0.0,0.0,97,0.00,,,0.04,,2013-01-17 11:53:00,
2013-01-17 07:02:00,42.0,41.0,30.01,West,270,0.0,0.0,96,0.00,,,0.04,,2013-01-17 12:02:00,
2013-01-17 07:12:00,42.0,41.0,30.01,West,270,0.0,0.0,96,0.00,,,0.04,,2013-01-17 12:12:00,
2013-01-17 07:23:00,42.0,41.0,30.03,NW,315,0.0,0.0,95,0.00,,,0.04,,2013-01-17 12:23:00,
2013-01-17 07:33:00,42.0,41.0,30.03,NW,315,0.0,0.0,95,0.00,,,0.04,,2013-01-17 12:33:00,
2013-01-17 07:43:00,42.0,41.0,30.03,NW,315,0.0,0.0,95,0.00,,,0.04,,2013-01-17 12:43:00,
2013-01-17 07:53:00,42.0,41.0,30.02,NW,315,0.0,0.0,95,0.00,,,0.04,,2013-01-17 12:53:00,
2013-01-17 08:03:00,42.0,41.0,30.02,NW,315,0.0,0.0,95,0.00,,,0.04,,2013-01-17 13:03:00,
2013-01-17 08:12:00,42.0,41.0,30.02,NW,315,0.0,0.0,95,0.00,,,0.04,,2013-01-17 13:12:00,
2013-01-17 08:23:00,42.0,41.0,30.05,NW,315,0.0,0.0,95,0.00,,,0.04,,2013-01-17 13:23:00,
2013-01-17 08:33:00,42.0,40.0,30.04,NW,315,0.0,0.0,94,0.00,,,0.04,,2013-01-17 13:33:00,
2013-01-17 08:43:00,42.0,40.0,30.04,NW,315,0.0,0.0,94,0.00,,,0.04,,2013-01-17 13:43:00,
2013-01-17 08:53:00,41.0,39.0,30.06,NNW,337,0.0,0.0,93,0.00,,,0.04,,2013-01-17 13:53:00,
2013-01-17 09:03:00,41.0,39.0,30.07,NNW,337,0.0,0.0,93,0.00,,,0.04,,2013-01-17 14:03:00,
2013-01-17 09:12:00,41.0,39.0,30.07,NNW,337,0.0,0.0,93,0.00,,,0.04,,2013-01-17 14:12:00,
2013-01-17 09:23:00,42.0,40.0,30.06,NNW,337,0.0,0.0,92,0.00,,,0.00,,2013-01-17 14:23:00,
2013-01-17 09:33:00,42.0,40.0,30.07,NNW,337,0.0,0.0,92,0.00,,,0.00,,2013-01-17 14:33:00,
2013-01-17 09:43:00,42.0,40.0,30.07,NNW,337,0.0,0.0,92,0.00,,,0.00,,2013-01-17 14:43:00,
2013-01-17 09:53:00,42.0,40.0,30.07,NNW,337,0.0,0.0,91,0.00,,,0.00,,2013-01-17 14:53:00,
2013-01-17 10:03:00,42.0,40.0,30.08,NNW,337,0.0,0.0,91,0.00,,,0.00,,2013-01-17 15:03:00,
2013-01-17 10:12:00,42.0,40.0,30.08,NNW,337,0.0,0.0,91,0.00,,,0.00,,2013-01-17 15:12:00,
2013-01-17 10:23:00,42.0,39.0,30.08,NW,315,0.0,0.0,89,0.00,,,0.00,,2013-01-17 15:23:00,
2013-01-17 10:33:00,42.0,39.0,30.08,NW,315,0.0,0.0,89,0.00,,,0.00,,2013-01-17 15:33:00,
2013-01-17 10:43:00,42.0,39.0,30.08,NW,315,0.0,0.0,89,0.00,,,0.00,,2013-01-17 15:43:00,
2013-01-17 10:53:00,43.0,39.0,30.07,NNW,337,0.0,0.0,87,0.00,,,0.00,,2013-01-17 15:53:00,
2013-01-17 11:03:00,43.0,39.0,30.08,NNW,337,0.0,0.0,86,0.00,,,0.00,,2013-01-17 16:03:00,
2013-01-17 11:12:00,43.0,39.0,30.08,NNW,337,0.0,0.0,86,0.00,,,0.00,,2013-01-17 16:12:00,
2013-01-17 11:23:00,43.0,39.0,30.07,NNW,337,1.0,1.0,85,0.00,,,0.00,,2013-01-17 16:23:00,
2013-01-17 11:33:00,43.0,39.0,30.07,NNW,337,0.0,3.0,85,0.00,,,0.00,,2013-01-17 16:33:00,
2013-01-17 11:43:00,43.0,39.0,30.07,NNW,337,0.0,3.0,85,0.00,,,0.00,,2013-01-17 16:43:00,
2013-01-17 11:53:00,43.0,39.0,30.08,North,0,0.0,0.0,85,0.00,,,0.00,,2013-01-17 16:53:00,
2013-01-17 12:03:00,43.0,38.0,30.07,NE,45,0.0,0.0,84,0.00,,,0.00,,2013-01-17 17:03:00,
2013-01-17 12:13:00,43.0,38.0,30.07,NE,45,0.0,0.0,84,0.00,,,0.00,,2013-01-17 17:13:00,
2013-01-17 12:23:00,44.0,39.0,30.05,NNW,337,0.0,3.0,83,0.00,,,0.00,,2013-01-17 17:23:00,
2013-01-17 12:33:00,44.0,39.0,30.05,East,90,0.0,0.0,82,0.00,,,0.00,,2013-01-17 17:33:00,
2013-01-17 12:43:00,44.0,39.0,30.05,East,90,0.0,0.0,82,0.00,,,0.00,,2013-01-17 17:43:00,
2013-01-17 12:53:00,43.0,38.0,30.04,NW,324,2.0,3.0,82,0.00,,,0.00,,2013-01-17 17:53:00,
2013-01-17 13:04:00,43.0,38.0,30.04,North,349,2.0,3.0,81,0.00,,,0.00,,2013-01-17 18:04:00,
2013-01-17 13:13:00,43.0,38.0,30.04,North,349,2.0,3.0,81,0.00,,,0.00,,2013-01-17 18:13:00,
2013-01-17 13:23:00,43.0,38.0,30.05,NNW,343,3.0,6.0,83,0.00,,,0.00,,2013-01-17 18:23:00,
2013-01-17 13:33:00,43.0,38.0,30.03,NW,315,0.0,4.0,81,0.00,,,0.00,,2013-01-17 18:33:00,
2013-01-17 13:43:00,43.0,38.0,30.03,NW,315,0.0,4.0,81,0.00,,,0.00,,2013-01-17 18:43:00,
2013-01-17 13:53:00,43.0,38.0,30.03,North,8,1.0,6.0,81,0.00,,,0.00,,2013-01-17 18:53:00,
2013-01-17 14:03:00,43.0,38.0,30.02,NNW,346,3.0,5.0,81,0.00,,,0.00,,2013-01-17 19:03:00,
2013-01-17 14:13:00,43.0,38.0,30.02,NNW,346,3.0,5.0,81,0.00,,,0.00,,2013-01-17 19:13:00,
2013-01-17 14:23:00,43.0,38.0,30.04,NE,45,0.0,1.0,81,0.00,,,0.00,,2013-01-17 19:23:00,
2013-01-17 14:33:00,42.0,37.0,30.04,ESE,112,0.0,3.0,81,0.00,,,0.00,,2013-01-17 19:33:00,
2013-01-17 14:43:00,42.0,37.0,30.04,ESE,112,0.0,3.0,81,0.00,,,0.00,,2013-01-17 19:43:00,
2013-01-17 14:53:00,42.0,37.0,30.02,NNE,22,0.0,0.0,82,0.00,,,0.00,,2013-01-17 19:53:00,
2013-01-17 15:03:00,42.0,37.0,30.03,NNE,22,0.0,0.0,82,0.00,,,0.00,,2013-01-17 20:03:00,
2013-01-17 15:12:00,42.0,37.0,30.03,NNE,22,0.0,0.0,82,0.00,,,0.00,,2013-01-17 20:12:00,
2013-01-17 15:23:00,42.0,37.0,30.03,NNE,22,0.0,0.0,83,0.00,,,0.00,,2013-01-17 20:23:00,
2013-01-17 15:33:00,42.0,37.0,30.04,NNE,22,0.0,0.0,83,0.00,,,0.00,,2013-01-17 20:33:00,
2013-01-17 15:43:00,42.0,37.0,30.04,NNE,22,0.0,0.0,83,0.00,,,0.00,,2013-01-17 20:43:00,
2013-01-17 15:54:00,42.0,37.0,30.05,NNE,22,0.0,0.0,83,0.00,,,0.00,,2013-01-17 20:54:00,
2013-01-17 16:03:00,42.0,37.0,30.06,North,0,0.0,0.0,82,0.00,,,0.00,,2013-01-17 21:03:00,
2013-01-17 16:13:00,42.0,37.0,30.06,North,0,0.0,0.0,82,0.00,,,0.00,,2013-01-17 21:13:00,
2013-01-17 16:23:00,41.0,36.0,30.06,NE,45,0.0,0.0,82,0.00,,,0.00,,2013-01-17 21:23:00,
2013-01-17 16:34:00,41.0,36.0,30.05,NE,45,0.0,0.0,83,0.00,,,0.00,,2013-01-17 21:34:00,
2013-01-17 16:43:00,41.0,36.0,30.05,NE,45,0.0,0.0,83,0.00,,,0.00,,2013-01-17 21:43:00,
2013-01-17 16:53:00,41.0,36.0,30.06,NNW,337,0.0,3.0,83,0.00,,,0.00,,2013-01-17 21:53:00,
2013-01-17 17:03:00,41.0,36.0,30.07,NNW,337,0.0,0.0,83,0.00,,,0.00,,2013-01-17 22:03:00,
2013-01-17 17:12:00,41.0,36.0,30.07,NNW,337,0.0,0.0,83,0.00,,,0.00,,2013-01-17 22:12:00,
2013-01-17 17:23:00,41.0,36.0,30.07,NNW,337,0.0,0.0,83,0.00,,,0.00,,2013-01-17 22:23:00,
2013-01-17 17:33:00,41.0,36.0,30.07,NNW,337,0.0,0.0,83,0.00,,,0.00,,2013-01-17 22:33:00,
2013-01-17 17:43:00,41.0,36.0,30.07,NNW,337,0.0,0.0,83,0.00,,,0.00,,2013-01-17 22:43:00,
2013-01-17 17:53:00,41.0,36.0,30.06,NNW,337,0.0,0.0,83,0.00,,,0.00,,2013-01-17 22:53:00,
2013-01-17 18:03:00,41.0,36.0,30.06,NNW,337,0.0,0.0,83,0.00,,,0.00,,2013-01-17 23:03:00,
2013-01-17 18:12:00,41.0,36.0,30.06,NNW,337,0.0,0.0,83,0.00,,,0.00,,2013-01-17 23:12:00,
2013-01-17 18:23:00,41.0,37.0,30.07,NNW,337,0.0,0.0,84,0.00,,,0.00,,2013-01-17 23:23:00,
2013-01-17 18:33:00,41.0,37.0,30.08,NNW,337,0.0,0.0,84,0.00,,,0.00,,2013-01-17 23:33:00,
2013-01-17 18:43:00,41.0,37.0,30.08,NNW,337,0.0,0.0,84,0.00,,,0.00,,2013-01-17 23:43:00,
2013-01-17 18:53:00,40.0,36.0,30.08,NNW,337,0.0,0.0,84,0.00,,,0.00,,2013-01-17 23:53:00,
2013-01-17 19:03:00,40.0,36.0,30.08,NNW,337,0.0,0.0,84,0.00,,,0.00,,2013-01-18 00:03:00,
2013-01-17 19:12:00,40.0,36.0,30.08,NNW,337,0.0,0.0,84,0.00,,,0.00,,2013-01-18 00:12:00,
2013-01-17 19:23:00,40.0,36.0,30.07,NNW,337,0.0,0.0,84,0.00,,,0.00,,2013-01-18 00:23:00,
2013-01-17 19:32:00,40.0,36.0,30.07,NNW,337,0.0,0.0,84,0.00,,,0.00,,2013-01-18 00:32:00,
2013-01-17 19:42:00,40.0,36.0,30.06,NNW,337,0.0,0.0,84,0.00,,,0.00,,2013-01-18 00:42:00,
2013-01-17 19:52:00,40.0,36.0,30.06,NNW,337,0.0,0.0,84,0.00,,,0.00,,2013-01-18 00:52:00,
2013-01-17 20:03:00,40.0,36.0,30.05,NNW,337,0.0,0.0,84,0.00,,,0.00,,2013-01-18 01:03:00,
2013-01-17 20:13:00,40.0,36.0,30.05,NNW,337,0.0,0.0,84,0.00,,,0.00,,2013-01-18 01:13:00,
2013-01-17 20:23:00,40.0,35.0,30.04,NNE,22,0.0,0.0,83,0.00,,,0.00,,2013-01-18 01:23:00,
2013-01-17 20:33:00,40.0,35.0,30.03,NNW,337,0.0,0.0,83,0.00,,,0.00,,2013-01-18 01:33:00,
2013-01-17 20:43:00,40.0,35.0,30.03,NNW,337,0.0,0.0,83,0.00,,,0.00,,2013-01-18 01:43:00,
2013-01-17 20:52:00,40.0,35.0,30.05,NW,315,0.0,0.0,83,0.00,,,0.00,,2013-01-18 01:52:00,
2013-01-17 21:03:00,40.0,36.0,30.04,NW,315,0.0,0.0,84,0.00,,,0.00,,2013-01-18 02:03:00,
2013-01-17 21:12:00,40.0,36.0,30.04,NW,315,0.0,0.0,84,0.00,,,0.00,,2013-01-18 02:12:00,
2013-01-17 21:23:00,40.0,36.0,30.04,NW,315,0.0,0.0,84,0.00,,,0.00,,2013-01-18 02:23:00,
2013-01-17 21:33:00,39.0,35.0,30.03,NW,315,0.0,0.0,84,0.00,,,0.00,,2013-01-18 02:33:00,
2013-01-17 21:43:00,39.0,35.0,30.03,NW,315,0.0,0.0,84,0.00,,,0.00,,2013-01-18 02:43:00,
2013-01-17 21:52:00,39.0,35.0,30.03,NW,315,0.0,0.0,84,0.00,,,0.00,,2013-01-18 02:52:00,
2013-01-17 22:02:00,39.0,35.0,30.03,NW,315,0.0,0.0,85,0.00,,,0.00,,2013-01-18 03:02:00,
2013-01-17 22:12:00,39.0,35.0,30.03,NW,315,0.0,0.0,85,0.00,,,0.00,,2013-01-18 03:12:00,
2013-01-17 22:23:00,39.0,35.0,30.02,NW,315,0.0,0.0,85,0.00,,,0.00,,2013-01-18 03:23:00,
2013-01-17 22:33:00,39.0,35.0,30.04,NW,315,0.0,0.0,85,0.00,,,0.00,,2013-01-18 03:33:00,
2013-01-17 22:42:00,39.0,35.0,30.04,NW,315,0.0,0.0,85,0.00,,,0.00,,2013-01-18 03:42:00,
2013-01-17 22:52:00,39.0,35.0,30.05,NW,315,0.0,0.0,85,0.00,,,0.00,,2013-01-18 03:52:00,
2013-01-17 23:02:00,39.0,35.0,30.03,NW,315,0.0,0.0,85,0.00,,,0.00,,2013-01-18 04:02:00,
2013-01-17 23:12:00,39.0,35.0,30.03,NW,315,0.0,0.0,85,0.00,,,0.00,,2013-01-18 04:12:00,
2013-01-17 23:22:00,39.0,35.0,30.03,NW,315,0.0,0.0,85,0.00,,,0.00,,2013-01-18 04:22:00,
2013-01-17 23:33:00,39.0,35.0,30.01,NW,315,0.0,0.0,86,0.00,,,0.00,,2013-01-18 04:33:00,
2013-01-17 23:42:00,39.0,35.0,30.01,NW,315,0.0,0.0,86,0.00,,,0.00,,2013-01-18 04:42:00,
2013-01-17 23:52:00,39.0,35.0,30.04,NW,315,0.0,0.0,85,0.00,,,0.00,,2013-01-18 04:52:00,